Time;durP1;ratioP1;P1;durP2;ratioP2;P2;SDS_P1;SDS_P2;PMS_P1;PMS_P2;Temp;Humidity;BMP_temperature;BMP_pressure;BME280_temperature;BME280_humidity;BME280_pressure;Samples;Min_cycle;Max_cycle;Signal;HPM_P1;HPM_P2
2021/11/09 00:01:57;;;;;;;11.97;5.93;;;4.00;99.90;;;;;;5021634;28;20188;-79
2021/11/09 00:04:28;;;;;;;12.50;6.10;;;4.10;99.90;;;;;;5021249;28;20272;-80
2021/11/09 00:07:06;;;;;;;9.73;5.43;;;4.00;99.90;;;;;;5003344;28;20179;-80
2021/11/09 00:09:45;;;;;;;12.13;5.13;;;4.10;99.90;;;;;;5003305;28;20184;-80
2021/11/09 00:12:11;;;;;;;13.17;6.07;;;4.00;99.90;;;;;;5020815;28;20209;-79
2021/11/09 00:14:36;;;;;;;11.33;5.67;;;4.00;99.90;;;;;;5020521;28;20188;-79
2021/11/09 00:17:03;;;;;;;10.10;6.17;;;4.00;99.90;;;;;;5011931;28;20175;-80
2021/11/09 00:19:29;;;;;;;14.80;5.90;;;4.00;99.90;;;;;;4982435;28;20590;-79
2021/11/09 00:21:55;;;;;;;9.57;5.73;;;4.00;99.90;;;;;;5000184;28;20217;-80
2021/11/09 00:24:20;;;;;;;10.07;5.67;;;4.00;99.90;;;;;;5000454;28;20546;-80
2021/11/09 00:26:47;;;;;;;11.20;6.27;;;4.00;99.90;;;;;;5016915;28;20184;-79
2021/11/09 00:29:12;;;;;;;14.47;6.03;;;4.00;99.90;;;;;;5020425;28;20595;-80
2021/11/09 00:31:38;;;;;;;14.80;6.13;;;3.90;99.90;;;;;;5020572;28;20280;-79
2021/11/09 00:34:04;;;;;;;11.20;6.07;;;3.90;99.90;;;;;;5016550;28;20193;-81
2021/11/09 00:36:30;;;;;;;13.97;6.30;;;3.90;99.90;;;;;;5020054;28;20185;-80
2021/11/09 00:38:56;;;;;;;9.60;6.00;;;3.80;99.90;;;;;;5019804;28;20177;-81
2021/11/09 00:41:22;;;;;;;10.87;6.07;;;3.80;99.90;;;;;;5018502;28;20664;-79
2021/11/09 00:43:48;;;;;;;9.23;6.20;;;3.90;99.90;;;;;;5020501;28;20209;-79
2021/11/09 00:46:13;;;;;;;10.90;5.50;;;3.80;99.90;;;;;;5020633;28;20203;-80
2021/11/09 00:48:39;;;;;;;7.57;5.50;;;3.80;99.90;;;;;;5019579;28;20223;-80
2021/11/09 00:51:05;;;;;;;13.20;5.90;;;3.80;99.90;;;;;;5020327;28;20211;-79
2021/11/09 00:53:31;;;;;;;12.73;6.43;;;3.80;99.90;;;;;;5018748;28;20209;-80
2021/11/09 00:55:57;;;;;;;9.60;5.53;;;3.80;99.90;;;;;;5020045;28;20184;-80
2021/11/09 00:58:23;;;;;;;8.77;5.63;;;3.80;99.90;;;;;;5018295;28;20735;-79
2021/11/09 01:00:48;;;;;;;10.87;6.37;;;3.70;99.90;;;;;;5020360;28;20202;-80
2021/11/09 01:03:15;;;;;;;15.00;6.53;;;3.70;99.90;;;;;;5019963;28;20238;-80
2021/11/09 01:05:41;;;;;;;14.53;6.80;;;3.70;99.90;;;;;;5020079;28;20176;-79
2021/11/09 01:08:10;;;;;;;10.73;5.93;;;3.70;99.90;;;;;;5019747;28;20176;-80
2021/11/09 01:10:40;;;;;;;12.73;6.40;;;3.70;99.90;;;;;;5019949;28;20249;-79
2021/11/09 01:13:06;;;;;;;9.77;6.53;;;3.80;99.90;;;;;;5019471;28;20866;-79
2021/11/09 01:15:33;;;;;;;13.53;7.10;;;3.60;99.90;;;;;;5019620;28;20527;-80
2021/11/09 01:18:00;;;;;;;11.63;6.30;;;3.60;99.90;;;;;;5019578;28;20184;-79
2021/11/09 01:20:27;;;;;;;8.80;6.03;;;3.60;99.90;;;;;;5019854;28;20180;-79
2021/11/09 01:22:55;;;;;;;15.93;6.43;;;3.70;99.90;;;;;;5019898;28;20191;-79
2021/11/09 01:25:22;;;;;;;15.63;7.43;;;3.70;99.90;;;;;;5019377;28;20257;-80
2021/11/09 01:27:48;;;;;;;12.63;6.90;;;3.60;99.90;;;;;;5010594;28;20180;-79
2021/11/09 01:30:15;;;;;;;8.80;6.43;;;3.60;99.90;;;;;;5000291;28;20195;-78
2021/11/09 01:32:41;;;;;;;9.63;5.60;;;3.60;99.90;;;;;;4999088;28;20193;-80
2021/11/09 01:35:07;;;;;;;9.47;5.93;;;3.60;99.90;;;;;;4982317;28;20185;-79
2021/11/09 01:37:33;;;;;;;12.53;6.43;;;3.70;99.90;;;;;;4999468;28;20189;-80
2021/11/09 01:40:00;;;;;;;9.67;6.30;;;3.60;99.90;;;;;;4999563;28;20185;-80
2021/11/09 01:42:26;;;;;;;13.53;6.43;;;3.60;99.90;;;;;;5002519;28;20267;-80
2021/11/09 01:44:52;;;;;;;7.83;6.60;;;3.60;99.90;;;;;;5001254;28;20212;-79
2021/11/09 01:47:18;;;;;;;11.33;6.07;;;3.60;99.90;;;;;;5002976;28;20197;-80
2021/11/09 01:49:43;;;;;;;13.03;6.50;;;3.60;99.90;;;;;;4981433;28;20213;-77
2021/11/09 01:52:09;;;;;;;13.63;6.80;;;3.60;99.90;;;;;;4998791;28;20212;-79
2021/11/09 01:54:35;;;;;;;15.33;6.20;;;3.60;99.90;;;;;;5004789;28;20187;-79
2021/11/09 01:57:01;;;;;;;10.40;6.47;;;3.60;99.90;;;;;;5018631;28;20527;-80
2021/11/09 01:59:30;;;;;;;10.63;6.70;;;3.50;99.90;;;;;;5017991;28;20594;-79
2021/11/09 02:01:56;;;;;;;14.20;6.70;;;3.50;99.90;;;;;;5017820;28;20203;-80
2021/11/09 02:04:22;;;;;;;12.50;5.83;;;3.40;99.90;;;;;;5015939;28;20253;-80
2021/11/09 02:06:48;;;;;;;11.60;6.07;;;3.50;99.90;;;;;;4984010;28;20270;-80
2021/11/09 02:09:15;;;;;;;13.77;7.17;;;3.40;99.90;;;;;;5017890;28;20237;-79
2021/11/09 02:11:41;;;;;;;13.37;7.30;;;3.30;99.90;;;;;;5018164;28;20224;-79
2021/11/09 02:14:08;;;;;;;10.57;6.10;;;3.30;99.90;;;;;;5018014;28;20177;-79
2021/11/09 02:16:35;;;;;;;10.70;5.87;;;3.50;99.90;;;;;;5018226;28;20229;-80
2021/11/09 02:19:01;;;;;;;16.80;6.93;;;3.40;99.90;;;;;;5018237;28;20175;-80
2021/11/09 02:21:27;;;;;;;12.93;6.97;;;3.40;99.90;;;;;;5000211;28;20251;-80
2021/11/09 02:23:52;;;;;;;10.97;7.03;;;3.40;99.90;;;;;;5018411;28;20180;-80
2021/11/09 02:26:21;;;;;;;10.53;6.80;;;3.40;99.90;;;;;;5018433;28;20653;-80
2021/11/09 02:28:48;;;;;;;10.50;6.67;;;3.40;99.90;;;;;;5018326;28;20207;-79
2021/11/09 02:31:14;;;;;;;11.30;6.87;;;3.40;99.90;;;;;;5018956;28;20201;-80
2021/11/09 02:33:40;;;;;;;10.77;6.53;;;3.40;99.90;;;;;;5018618;28;20587;-79
2021/11/09 02:36:06;;;;;;;9.57;6.17;;;3.40;99.90;;;;;;5018557;28;20177;-80
2021/11/09 02:38:32;;;;;;;11.40;6.80;;;3.40;99.90;;;;;;5017989;28;20552;-80
2021/11/09 02:40:59;;;;;;;12.63;7.30;;;3.40;99.90;;;;;;4996990;28;20344;-80
2021/11/09 02:43:25;;;;;;;10.73;6.50;;;3.30;99.90;;;;;;5018376;28;20548;-80
2021/11/09 02:49:10;;;;;;;15.63;6.93;;;3.30;99.90;;;;;;5017813;28;20259;-78
2021/11/09 02:51:41;;;;;;;10.27;6.60;;;3.30;99.90;;;;;;5008590;28;20690;-79
2021/11/09 02:56:54;;;;;;;10.80;7.27;;;3.30;99.90;;;;;;5008784;28;20180;-80
2021/11/09 03:04:57;;;;;;;11.53;6.80;;;3.30;99.90;;;;;;4983399;28;20185;-80
2021/11/09 03:07:30;;;;;;;13.77;6.40;;;3.30;99.90;;;;;;5010946;28;20177;-80
2021/11/09 03:12:37;;;;;;;13.50;6.30;;;3.40;99.90;;;;;;5022280;28;20544;-80
2021/11/09 03:15:08;;;;;;;12.50;6.90;;;3.20;99.90;;;;;;5020734;28;20582;-81
2021/11/09 03:17:47;;;;;;;8.83;6.87;;;3.20;99.90;;;;;;5020826;28;20249;-81
2021/11/09 03:20:21;;;;;;;10.93;6.83;;;3.30;99.90;;;;;;5006951;28;20174;-81
2021/11/09 03:47:51;;;;;;;18.50;9.03;;;3.10;99.90;;;;;;4959402;28;20627;-80
2021/11/09 03:50:19;;;;;;;13.70;9.40;;;3.10;99.90;;;;;;5009094;28;20574;-79
2021/11/09 03:52:53;;;;;;;17.83;11.23;;;3.10;99.90;;;;;;5016259;28;20247;-80
2021/11/09 03:55:37;;;;;;;16.00;9.67;;;3.10;99.90;;;;;;5017700;28;20175;-80
2021/11/09 03:58:23;;;;;;;18.53;10.73;;;3.10;99.90;;;;;;5021824;28;20180;-81
2021/11/09 04:00:58;;;;;;;15.17;10.90;;;3.10;99.90;;;;;;5022324;28;20245;-79
2021/11/09 04:05:56;;;;;;;16.37;9.53;;;3.10;99.90;;;;;;5008390;28;20202;-79
2021/11/09 04:08:37;;;;;;;13.03;9.60;;;3.10;99.90;;;;;;5014336;28;20205;-79
2021/11/09 04:18:41;;;;;;;15.53;10.13;;;3.10;99.90;;;;;;5002091;28;20554;-80
2021/11/09 05:11:37;;;;;;;26.23;13.80;;;2.80;99.90;;;;;;5019702;28;20203;-81
2021/11/09 05:14:05;;;;;;;24.90;13.03;;;2.80;99.90;;;;;;5021232;28;20665;-80
2021/11/09 05:16:31;;;;;;;21.20;13.73;;;2.70;99.90;;;;;;5020155;28;20183;-80
2021/11/09 05:18:57;;;;;;;26.90;13.13;;;2.70;99.90;;;;;;5021038;28;20237;-80
2021/11/09 05:21:23;;;;;;;24.90;13.27;;;2.70;99.90;;;;;;5007108;28;20698;-79
2021/11/09 05:23:49;;;;;;;25.73;12.77;;;2.70;99.90;;;;;;5000777;28;20179;-80
2021/11/09 05:26:14;;;;;;;23.63;13.77;;;2.70;99.90;;;;;;5001361;28;20180;-78
2021/11/09 05:28:40;;;;;;;21.40;13.23;;;2.70;99.90;;;;;;5001215;28;20185;-81
2021/11/09 05:31:06;;;;;;;24.87;13.23;;;2.70;99.90;;;;;;4983035;28;20629;-79
2021/11/09 05:33:32;;;;;;;20.50;13.17;;;2.70;99.90;;;;;;4998917;28;20227;-80
2021/11/09 05:35:59;;;;;;;22.40;12.60;;;2.70;99.90;;;;;;4998590;28;20252;-80
2021/11/09 05:38:34;;;;;;;23.60;13.20;;;2.70;99.90;;;;;;5000107;28;20185;-80
2021/11/09 05:41:07;;;;;;;23.27;12.73;;;2.70;99.90;;;;;;5000829;28;20554;-80
2021/11/09 05:43:33;;;;;;;24.20;12.67;;;2.70;99.90;;;;;;5000033;28;20176;-81
2021/11/09 05:45:58;;;;;;;21.87;12.50;;;2.70;99.90;;;;;;5001105;28;20312;-80
2021/11/09 05:48:24;;;;;;;20.57;12.27;;;2.70;99.90;;;;;;5012206;28;20179;-79
2021/11/09 05:50:50;;;;;;;18.80;12.93;;;2.70;99.90;;;;;;5019437;28;20191;-79
2021/11/09 05:53:16;;;;;;;22.70;12.00;;;2.70;99.90;;;;;;5019709;28;20211;-79
2021/11/09 05:55:42;;;;;;;21.97;12.53;;;2.80;99.90;;;;;;5018117;28;20248;-79
2021/11/09 05:58:08;;;;;;;25.90;13.73;;;2.70;99.90;;;;;;5016491;28;20384;-80
2021/11/09 06:00:34;;;;;;;19.40;12.80;;;2.70;99.90;;;;;;5002078;28;20232;-79
2021/11/09 06:02:59;;;;;;;22.47;13.17;;;2.70;99.90;;;;;;5019174;28;20187;-80
2021/11/09 06:05:25;;;;;;;17.83;12.23;;;2.60;99.90;;;;;;5019305;28;20186;-80
2021/11/09 06:07:50;;;;;;;20.63;12.67;;;2.60;99.90;;;;;;5019698;28;20229;-80
2021/11/09 06:10:16;;;;;;;29.50;13.53;;;2.60;99.90;;;;;;5018973;28;20191;-79
2021/11/09 06:12:42;;;;;;;21.57;12.70;;;2.60;99.90;;;;;;5018220;28;20202;-79
2021/11/09 06:15:08;;;;;;;18.10;11.83;;;2.50;99.90;;;;;;5014357;28;20599;-80
2021/11/09 06:17:34;;;;;;;20.30;12.00;;;2.60;99.90;;;;;;5017329;28;20234;-79
2021/11/09 06:19:59;;;;;;;21.20;12.83;;;2.50;99.90;;;;;;5016330;28;20289;-80
2021/11/09 06:22:25;;;;;;;22.13;12.13;;;2.50;99.90;;;;;;5016924;28;20229;-80
2021/11/09 06:24:51;;;;;;;23.33;12.30;;;2.50;99.90;;;;;;4999354;28;20288;-80
2021/11/09 06:27:18;;;;;;;24.57;13.13;;;2.60;99.90;;;;;;5016998;28;20195;-80
2021/11/09 06:29:44;;;;;;;20.03;12.43;;;2.50;99.90;;;;;;5018369;28;20743;-79
2021/11/09 06:32:10;;;;;;;18.57;11.30;;;2.60;99.90;;;;;;5018339;28;20207;-80
2021/11/09 06:34:35;;;;;;;17.03;11.43;;;2.60;99.90;;;;;;5020456;28;20183;-79
2021/11/09 06:37:02;;;;;;;18.13;12.50;;;2.60;99.90;;;;;;5020359;28;20183;-79
2021/11/09 06:39:28;;;;;;;25.07;12.10;;;2.60;99.90;;;;;;5020015;28;20543;-80
2021/11/09 06:41:54;;;;;;;28.27;12.87;;;2.60;99.90;;;;;;4990079;28;20231;-79
2021/11/09 06:44:20;;;;;;;19.83;12.50;;;2.60;99.90;;;;;;5019809;28;20187;-80
2021/11/09 06:46:46;;;;;;;23.17;12.43;;;2.60;99.90;;;;;;5019321;28;20184;-81
2021/11/09 06:49:12;;;;;;;20.53;13.17;;;2.60;99.90;;;;;;5019506;28;20206;-80
2021/11/09 06:51:37;;;;;;;26.77;13.17;;;2.70;99.90;;;;;;5019267;28;20206;-80
2021/11/09 06:54:03;;;;;;;28.53;12.80;;;2.70;99.90;;;;;;5002104;28;20229;-80
2021/11/09 06:56:29;;;;;;;18.43;12.73;;;2.70;99.90;;;;;;5005285;28;20184;-80
2021/11/09 06:58:55;;;;;;;21.60;11.57;;;2.80;99.90;;;;;;5005472;28;20206;-80
2021/11/09 07:01:21;;;;;;;19.73;12.17;;;2.80;99.90;;;;;;5005098;28;20673;-80
2021/11/09 07:03:47;;;;;;;23.27;12.00;;;2.80;99.90;;;;;;5022840;28;20639;-80
2021/11/09 07:06:13;;;;;;;20.90;12.17;;;2.80;99.90;;;;;;5021746;28;20189;-80
2021/11/09 07:08:39;;;;;;;17.77;11.50;;;2.90;99.90;;;;;;5023212;28;20190;-80
2021/11/09 07:11:05;;;;;;;16.67;11.13;;;2.90;99.90;;;;;;5022538;28;20221;-80
2021/11/09 07:13:33;;;;;;;18.17;11.83;;;2.90;99.90;;;;;;5005546;28;20222;-80
2021/11/09 07:16:00;;;;;;;27.00;12.50;;;3.00;99.90;;;;;;5004819;28;20190;-79
2021/11/09 07:18:26;;;;;;;16.93;12.00;;;3.00;99.90;;;;;;5022958;28;20630;-80
2021/11/09 07:20:52;;;;;;;16.13;11.67;;;3.10;99.90;;;;;;5005333;28;20199;-80
2021/11/09 07:23:18;;;;;;;19.23;11.90;;;3.00;99.90;;;;;;5022510;28;20182;-80
2021/11/09 07:25:43;;;;;;;26.87;13.43;;;3.00;99.90;;;;;;5021808;28;20561;-80
2021/11/09 07:28:09;;;;;;;26.87;13.23;;;3.00;99.90;;;;;;5022147;28;20202;-79
2021/11/09 07:30:42;;;;;;;20.13;12.67;;;3.00;99.90;;;;;;5004324;28;20182;-80
2021/11/09 07:33:09;;;;;;;15.93;11.73;;;3.10;99.90;;;;;;5020348;28;20207;-79
2021/11/09 07:35:35;;;;;;;26.77;12.53;;;3.20;99.90;;;;;;5021946;28;20185;-79
2021/11/09 07:38:01;;;;;;;21.30;12.10;;;3.20;99.90;;;;;;5020367;28;20183;-81
2021/11/09 07:40:27;;;;;;;16.70;12.17;;;3.10;99.90;;;;;;5002543;28;20184;-80
2021/11/09 07:42:53;;;;;;;28.30;12.97;;;3.20;99.90;;;;;;5016991;28;20540;-79
2021/11/09 07:45:21;;;;;;;22.00;12.93;;;3.20;99.90;;;;;;5020077;28;20187;-80
2021/11/09 07:47:47;;;;;;;19.77;12.47;;;3.20;99.90;;;;;;4997334;28;20193;-80
2021/11/09 07:50:14;;;;;;;19.70;12.87;;;3.30;99.90;;;;;;5020237;28;20253;-79
2021/11/09 07:52:42;;;;;;;24.10;12.70;;;3.30;99.90;;;;;;5020075;28;20589;-79
2021/11/09 07:55:12;;;;;;;17.13;11.43;;;3.40;99.90;;;;;;4996784;28;20194;-81
2021/11/09 07:57:46;;;;;;;22.30;12.27;;;3.40;99.90;;;;;;5019044;28;20175;-79
2021/11/09 08:03:15;;;;;;;20.83;12.23;;;3.50;99.90;;;;;;5020459;28;20212;-79
2021/11/09 08:06:05;;;;;;;19.10;12.53;;;3.60;99.90;;;;;;5019570;28;20195;-79
2021/11/09 08:08:36;;;;;;;15.13;10.90;;;3.60;99.90;;;;;;5020653;28;20196;-79
2021/11/09 08:11:01;;;;;;;21.80;11.47;;;3.70;99.90;;;;;;5021054;28;20607;-79
2021/11/09 08:13:27;;;;;;;18.80;11.63;;;3.80;99.90;;;;;;5021501;28;20201;-79
2021/11/09 08:15:52;;;;;;;17.17;11.07;;;3.90;99.90;;;;;;5023281;28;20258;-80
2021/11/09 08:18:18;;;;;;;18.33;11.87;;;4.10;99.90;;;;;;5024582;28;20195;-79
2021/11/09 08:20:44;;;;;;;20.80;11.57;;;3.90;99.90;;;;;;5005906;28;20267;-79
2021/11/09 08:23:11;;;;;;;19.33;11.43;;;4.00;99.90;;;;;;5024753;28;20212;-79
2021/11/09 08:25:37;;;;;;;31.27;14.80;;;4.10;99.90;;;;;;5024055;28;20260;-80
2021/11/09 08:28:03;;;;;;;19.03;12.77;;;4.20;99.90;;;;;;5024987;28;20215;-80
2021/11/09 08:30:30;;;;;;;20.40;11.67;;;4.20;99.90;;;;;;5024784;28;20201;-80
2021/11/09 08:32:57;;;;;;;80.10;31.53;;;4.30;99.90;;;;;;5003134;28;20217;-79
2021/11/09 08:35:25;;;;;;;19.77;11.77;;;4.40;99.90;;;;;;5001032;28;20266;-79
2021/11/09 08:37:51;;;;;;;22.70;11.93;;;4.50;99.90;;;;;;5022284;28;20179;-80
2021/11/09 08:40:20;;;;;;;21.10;12.10;;;4.50;99.90;;;;;;5022290;28;20176;-81
2021/11/09 08:42:53;;;;;;;19.53;12.67;;;4.60;99.90;;;;;;5022474;28;20198;-81
2021/11/09 08:47:50;;;;;;;60.57;29.20;;;4.80;99.90;;;;;;5023406;28;20173;-79
2021/11/09 08:50:17;;;;;;;18.87;10.93;;;4.70;99.90;;;;;;5002177;28;20183;-79
2021/11/09 08:52:44;;;;;;;18.30;10.40;;;4.80;99.90;;;;;;5023258;28;20209;-82
2021/11/09 09:01:14;;;;;;;12.83;9.63;;;5.00;99.90;;;;;;5005798;28;20189;-81
2021/11/09 09:06:10;;;;;;;13.97;9.50;;;5.10;99.90;;;;;;5017611;28;20742;-80
2021/11/09 09:08:36;;;;;;;14.63;9.23;;;5.20;99.90;;;;;;5022229;28;20204;-81
2021/11/09 09:11:02;;;;;;;13.17;9.30;;;5.20;99.90;;;;;;5022837;28;20290;-80
2021/11/09 09:13:28;;;;;;;14.40;9.70;;;5.40;99.90;;;;;;5023031;28;20617;-81
2021/11/09 09:15:55;;;;;;;15.00;8.77;;;5.30;99.90;;;;;;5004877;28;20171;-80
2021/11/09 09:18:22;;;;;;;11.87;7.87;;;5.40;99.90;;;;;;5003992;28;20181;-80
2021/11/09 09:20:58;;;;;;;13.73;8.40;;;5.40;99.90;;;;;;5022705;28;20561;-81
2021/11/09 09:23:32;;;;;;;11.73;8.07;;;5.50;99.90;;;;;;5004453;28;20268;-81
2021/11/09 10:34:25;;;;;;;8.20;7.17;;;6.80;99.90;;;;;;4992894;28;20297;-83
2021/11/09 10:37:11;;;;;;;8.07;6.73;;;6.70;99.90;;;;;;4995671;28;20720;-80
2021/11/09 10:39:37;;;;;;;9.70;6.83;;;6.80;99.90;;;;;;4993908;28;20173;-80
2021/11/09 10:42:13;;;;;;;7.30;6.50;;;7.00;99.90;;;;;;4991239;28;20266;-82
2021/11/09 10:44:43;;;;;;;9.53;7.57;;;6.90;99.90;;;;;;4990310;28;20237;-80
2021/11/09 10:47:19;;;;;;;8.73;6.97;;;6.90;99.90;;;;;;4995878;28;20180;-82
2021/11/09 10:49:55;;;;;;;9.33;7.37;;;6.80;99.90;;;;;;4993160;28;20207;-81
2021/11/09 10:52:27;;;;;;;8.70;6.27;;;6.90;99.90;;;;;;4984021;28;20273;-82
2021/11/09 10:55:35;;;;;;;7.73;7.03;;;7.10;99.90;;;;;;4990492;28;20165;-82
2021/11/09 10:58:17;;;;;;;8.47;7.20;;;7.20;99.90;;;;;;4988826;28;20196;-80
2021/11/09 11:00:58;;;;;;;10.10;8.43;;;7.40;99.90;;;;;;4986698;28;20179;-79
2021/11/09 11:06:18;;;;;;;8.47;6.53;;;7.60;99.90;;;;;;4987518;28;20619;-79
2021/11/09 11:08:45;;;;;;;8.27;7.20;;;7.70;99.90;;;;;;4995547;28;20180;-79
2021/11/09 11:11:32;;;;;;;7.40;6.77;;;7.70;99.90;;;;;;4974217;28;20204;-81
2021/11/09 11:14:12;;;;;;;8.43;7.00;;;7.70;99.90;;;;;;4977010;28;20226;-81
2021/11/09 11:16:45;;;;;;;9.37;6.60;;;7.60;99.90;;;;;;4974426;28;20278;-80
2021/11/09 11:19:21;;;;;;;8.37;7.23;;;7.60;99.90;;;;;;4986376;28;20192;-79
2021/11/09 11:21:48;;;;;;;10.17;7.07;;;7.60;99.90;;;;;;4971653;28;20617;-81
2021/11/09 11:24:15;;;;;;;8.30;6.77;;;7.70;99.90;;;;;;4986199;28;20219;-80
2021/11/09 11:26:46;;;;;;;9.80;7.00;;;7.80;99.90;;;;;;5062625;23;20262;-81
2021/11/09 11:29:20;;;;;;;9.70;7.07;;;7.90;99.90;;;;;;5006748;28;20184;-82
2021/11/09 11:31:47;;;;;;;7.03;6.20;;;8.00;99.90;;;;;;4994399;28;20175;-82
2021/11/09 11:34:15;;;;;;;8.43;6.30;;;8.10;99.90;;;;;;5002911;28;20203;-81
2021/11/09 11:36:41;;;;;;;7.87;6.80;;;8.10;99.90;;;;;;5010982;28;20192;-81
2021/11/09 11:39:09;;;;;;;6.83;6.23;;;8.10;99.90;;;;;;5010414;28;20233;-81
2021/11/09 11:41:41;;;;;;;8.50;6.40;;;8.10;99.90;;;;;;4999564;28;20547;-83
2021/11/09 11:44:08;;;;;;;8.53;6.60;;;8.20;99.90;;;;;;4992464;28;20183;-83
2021/11/09 11:46:34;;;;;;;7.70;6.33;;;8.20;99.90;;;;;;4972941;28;20313;-81
2021/11/09 11:49:01;;;;;;;7.70;6.17;;;8.30;99.90;;;;;;5013784;28;20918;-82
2021/11/09 11:51:32;;;;;;;9.30;6.80;;;8.30;99.90;;;;;;5008146;28;20223;-82
2021/11/09 11:53:58;;;;;;;11.50;6.67;;;8.30;99.90;;;;;;4998937;28;20207;-81
2021/11/09 11:56:39;;;;;;;7.60;6.10;;;8.40;99.90;;;;;;5015116;28;20176;-82
2021/11/09 11:59:25;;;;;;;10.40;7.30;;;8.30;99.90;;;;;;5012341;28;20552;-82
2021/11/09 12:02:03;;;;;;;9.47;6.67;;;8.30;99.90;;;;;;4989738;28;20207;-83
2021/11/09 12:04:44;;;;;;;8.03;6.27;;;8.30;99.90;;;;;;5013632;28;20213;-83
2021/11/09 12:07:15;;;;;;;8.20;6.67;;;8.50;99.90;;;;;;5005993;28;20259;-82
2021/11/09 12:09:44;;;;;;;11.67;6.90;;;8.40;99.90;;;;;;5006661;28;20171;-83
2021/11/09 12:12:19;;;;;;;8.00;6.33;;;8.40;99.90;;;;;;5001436;28;20189;-81
2021/11/09 12:14:56;;;;;;;7.13;6.23;;;8.40;99.90;;;;;;5010284;28;20183;-82
2021/11/09 12:17:38;;;;;;;7.33;6.03;;;8.40;99.90;;;;;;5012128;28;20681;-81
2021/11/09 12:20:11;;;;;;;8.87;8.03;;;8.50;99.90;;;;;;5017519;28;20540;-83
2021/11/09 12:22:49;;;;;;;10.27;7.87;;;8.60;99.90;;;;;;5008208;28;20678;-83
2021/11/09 12:25:33;;;;;;;23.90;18.97;;;8.50;99.90;;;;;;5017157;28;20182;-84
2021/11/09 12:28:08;;;;;;;9.97;6.53;;;8.70;99.90;;;;;;5008442;28;20226;-82
2021/11/09 12:30:36;;;;;;;22.87;13.67;;;8.80;99.90;;;;;;5000077;28;20191;-83
2021/11/09 12:33:16;;;;;;;16.50;11.07;;;8.70;99.90;;;;;;5012771;28;20261;-82
2021/11/09 12:35:59;;;;;;;8.37;6.40;;;8.80;99.90;;;;;;4996840;28;20271;-82
2021/11/09 12:38:39;;;;;;;35.93;21.70;;;8.70;99.90;;;;;;4997730;28;20713;-82
2021/11/09 12:41:24;;;;;;;18.97;11.77;;;8.80;99.90;;;;;;5015069;28;20208;-83
2021/11/09 12:43:57;;;;;;;11.33;6.93;;;8.80;99.90;;;;;;5009296;28;20181;-81
2021/11/09 12:46:31;;;;;;;9.47;6.30;;;8.90;99.90;;;;;;5015670;28;20198;-81
2021/11/09 12:49:02;;;;;;;9.97;6.27;;;8.90;99.90;;;;;;4998811;28;20201;-81
2021/11/09 12:51:46;;;;;;;9.00;6.40;;;8.90;99.90;;;;;;4992899;28;20203;-82
2021/11/09 12:54:38;;;;;;;6.63;5.90;;;9.00;99.90;;;;;;5006021;28;20211;-83
2021/11/09 12:57:06;;;;;;;8.30;6.13;;;9.00;99.90;;;;;;4997329;28;20247;-83
2021/11/09 12:59:53;;;;;;;7.37;5.90;;;9.00;99.90;;;;;;5016343;28;20183;-84
2021/11/09 13:02:29;;;;;;;9.53;6.33;;;9.00;99.90;;;;;;5018298;28;20183;-84
2021/11/09 13:05:10;;;;;;;7.47;5.37;;;9.00;99.90;;;;;;5018227;28;20234;-83
2021/11/09 13:10:18;;;;;;;6.40;5.60;;;9.10;99.90;;;;;;5008285;28;20275;-82
2021/11/09 13:12:45;;;;;;;6.93;5.00;;;9.10;99.90;;;;;;5016565;28;20206;-82
2021/11/09 13:15:20;;;;;;;7.27;5.30;;;9.10;99.90;;;;;;4998360;28;20185;-81
2021/11/09 13:17:54;;;;;;;6.33;4.93;;;9.20;99.90;;;;;;5010220;28;20207;-84
2021/11/09 13:23:02;;;;;;;5.70;4.83;;;9.30;99.90;;;;;;5010405;28;20645;-84
2021/11/09 13:25:49;;;;;;;5.67;4.63;;;9.40;99.90;;;;;;5011441;28;20196;-83
2021/11/09 13:28:19;;;;;;;5.17;4.20;;;9.40;99.90;;;;;;4994117;28;20308;-83
2021/11/09 13:30:49;;;;;;;5.70;4.30;;;9.50;99.90;;;;;;5009453;28;20188;-82
2021/11/09 13:33:15;;;;;;;4.67;4.07;;;9.50;99.90;;;;;;4990228;28;20206;-82
2021/11/09 13:35:44;;;;;;;5.03;4.00;;;9.50;99.90;;;;;;5012673;28;20258;-82
2021/11/09 13:38:24;;;;;;;6.50;3.97;;;9.40;99.90;;;;;;5006935;28;20347;-84
2021/11/09 13:40:53;;;;;;;5.63;4.17;;;9.40;99.90;;;;;;5015885;28;20558;-82
2021/11/09 13:43:25;;;;;;;5.13;4.53;;;9.50;99.90;;;;;;5008036;28;20311;-84
2021/11/09 13:46:01;;;;;;;6.00;4.50;;;9.50;99.90;;;;;;4994383;28;20195;-82
2021/11/09 13:48:27;;;;;;;7.57;4.77;;;9.50;99.90;;;;;;4991097;28;20203;-82
2021/11/09 13:50:58;;;;;;;9.60;4.97;;;9.50;99.90;;;;;;5002986;28;20186;-83
2021/11/09 13:53:38;;;;;;;5.80;4.97;;;9.60;99.90;;;;;;5003445;28;20203;-84
2021/11/09 13:56:06;;;;;;;9.57;4.63;;;9.60;99.90;;;;;;4985460;28;20176;-81
2021/11/09 13:58:32;;;;;;;5.20;4.53;;;9.60;99.90;;;;;;4993694;28;20199;-83
2021/11/09 14:01:00;;;;;;;7.53;4.23;;;9.50;99.90;;;;;;5003182;28;20584;-81
2021/11/09 14:03:54;;;;;;;6.53;4.40;;;9.60;99.90;;;;;;5002068;28;20169;-82
2021/11/09 14:09:16;;;;;;;9.73;4.60;;;9.50;99.90;;;;;;5006145;28;20191;-82
2021/11/09 14:16:57;;;;;;;6.10;4.07;;;9.60;99.90;;;;;;5021032;28;20246;-84
2021/11/09 14:19:30;;;;;;;7.40;4.97;;;9.50;99.90;;;;;;5022733;28;20590;-82
2021/11/09 14:21:58;;;;;;;7.20;5.50;;;9.60;99.90;;;;;;5021809;28;20186;-82
2021/11/09 14:24:27;;;;;;;7.17;5.40;;;9.40;99.90;;;;;;5017778;28;20181;-82
2021/11/09 14:27:14;;;;;;;7.27;5.77;;;9.50;99.90;;;;;;5017774;28;20209;-83
2021/11/09 14:29:58;;;;;;;9.00;5.33;;;9.40;99.90;;;;;;5004530;28;20192;-84
2021/11/09 14:32:33;;;;;;;6.43;5.37;;;9.30;99.90;;;;;;5003726;28;20195;-83
2021/11/09 14:35:21;;;;;;;8.40;6.33;;;9.30;99.90;;;;;;5005141;28;20183;-82
2021/11/09 14:37:58;;;;;;;8.47;6.70;;;9.30;99.90;;;;;;5016074;28;20210;-83
2021/11/09 14:40:32;;;;;;;10.77;9.67;;;9.30;99.90;;;;;;5022255;28;20300;-81
2021/11/09 14:43:11;;;;;;;8.90;7.77;;;9.30;99.90;;;;;;5020822;28;20178;-82
2021/11/09 14:48:16;;;;;;;19.73;14.00;;;9.30;99.90;;;;;;5023580;28;20201;-82
2021/11/09 14:50:52;;;;;;;7.53;4.97;;;9.30;99.90;;;;;;5012647;28;20200;-83
2021/11/09 14:53:25;;;;;;;6.27;5.23;;;9.20;99.90;;;;;;5005373;28;20196;-83
2021/11/09 14:55:58;;;;;;;21.00;15.00;;;9.20;99.90;;;;;;5022620;28;20171;-84
2021/11/09 14:58:31;;;;;;;16.07;10.03;;;9.10;99.90;;;;;;5023148;28;20187;-83
2021/11/09 15:01:17;;;;;;;11.43;7.77;;;9.10;99.90;;;;;;5023458;28;20171;-81
2021/11/09 15:04:20;;;;;;;6.43;4.90;;;9.10;99.90;;;;;;5021685;28;20642;-82
2021/11/09 15:26:26;;;;;;;7.67;4.50;;;8.70;99.90;;;;;;5014410;28;20351;-83
2021/11/09 15:31:29;;;;;;;6.87;4.53;;;8.60;99.90;;;;;;5026193;28;20181;-81
2021/11/09 15:39:12;;;;;;;32.93;15.90;;;8.70;99.90;;;;;;5025407;28;20168;-81
2021/11/09 15:41:40;;;;;;;25.80;12.37;;;8.50;99.90;;;;;;5022787;28;20171;-80
2021/11/09 15:44:06;;;;;;;19.93;12.13;;;8.50;99.90;;;;;;5011742;28;20298;-80
2021/11/09 15:46:32;;;;;;;11.03;6.17;;;8.50;99.90;;;;;;4990175;28;20234;-78
2021/11/09 15:48:58;;;;;;;12.10;7.97;;;8.40;99.90;;;;;;5010005;28;20271;-78
2021/11/09 15:51:24;;;;;;;153.23;52.30;;;8.40;99.90;;;;;;4982678;28;20177;-78
2021/11/09 15:53:50;;;;;;;25.77;11.23;;;8.40;99.90;;;;;;5012776;28;20197;-77
2021/11/09 15:56:16;;;;;;;38.37;16.47;;;8.30;99.90;;;;;;5001151;28;20225;-78
2021/11/09 15:58:42;;;;;;;28.17;13.40;;;8.40;99.90;;;;;;5020609;28;20172;-79
2021/11/09 16:01:08;;;;;;;31.17;13.93;;;8.30;99.90;;;;;;5018862;28;20177;-80
2021/11/09 16:03:37;;;;;;;25.73;11.07;;;8.30;99.90;;;;;;4997723;28;20215;-79
2021/11/09 16:06:05;;;;;;;14.57;7.73;;;8.30;99.90;;;;;;5007220;28;20199;-78
2021/11/09 16:08:32;;;;;;;8.53;5.40;;;8.30;99.90;;;;;;4991694;28;20610;-78
2021/11/09 16:11:03;;;;;;;6.33;5.00;;;8.30;99.90;;;;;;4981295;28;20284;-79
2021/11/09 16:13:29;;;;;;;5.50;3.97;;;8.20;99.90;;;;;;5001638;28;20218;-78
2021/11/09 16:15:55;;;;;;;9.97;4.30;;;8.20;99.90;;;;;;5019101;28;20230;-82
2021/11/09 16:18:21;;;;;;;7.40;5.03;;;8.20;99.90;;;;;;5023193;28;20195;-80
2021/11/09 16:20:47;;;;;;;5.93;4.70;;;8.10;99.90;;;;;;5019803;28;20205;-80
2021/11/09 16:23:13;;;;;;;6.90;4.67;;;8.20;99.90;;;;;;5017081;28;20206;-81
2021/11/09 16:25:39;;;;;;;12.90;8.00;;;8.10;99.90;;;;;;5018144;28;20599;-81
2021/11/09 16:28:06;;;;;;;15.97;7.93;;;8.00;99.90;;;;;;5001834;28;20213;-80
2021/11/09 16:30:33;;;;;;;16.23;9.50;;;8.00;99.90;;;;;;5005473;28;20261;-81
2021/11/09 16:33:14;;;;;;;16.23;9.10;;;8.00;99.90;;;;;;5019852;28;20338;-80
2021/11/09 16:38:44;;;;;;;9.93;6.87;;;7.80;99.90;;;;;;4977889;28;20202;-80
2021/11/09 16:41:15;;;;;;;7.87;5.27;;;7.80;99.90;;;;;;4999004;28;20175;-81
2021/11/09 16:43:49;;;;;;;8.93;6.50;;;7.70;99.90;;;;;;5019395;28;20187;-81
2021/11/09 16:46:25;;;;;;;6.77;5.03;;;7.70;99.90;;;;;;5007574;28;20176;-79
2021/11/09 16:51:30;;;;;;;6.87;6.17;;;7.60;99.90;;;;;;5019680;28;20192;-81
2021/11/09 16:54:45;;;;;;;8.30;6.03;;;7.60;99.90;;;;;;5005868;28;20542;-80
2021/11/09 18:20:06;;;;;;;11.80;9.20;;;6.70;99.90;;;;;;5000894;28;20610;-81